Gillam Airport
CYGX : now visible

Airfield :











YOU CAN JOIN US ON...

 
LOGIN :

Register | Disclaimer

   EN    FR    IT 

 









Legend :    VFR   Marginal VFR   IFR   Intensive IFR   Very Intensive IFR
Visi :
Ceiling :
>= 8 km
>= 3000ft
5 to 8 km
1000 to 3000 ft
1500m to 5 km
500 to 1000 ft
800 to 1500m
200 to 500 ft
< 800m
< 200 ft
Symbols :   Thunderstorms  Fog  Heavy snow  Heavy precipitations  Wind > 20 kt






- Airport Elevation : 476 ft
- IATA code : YGX


CYGX - Gillam

CURRENT METAR :
  • 232100Z 23017G24KT 15SM SCT045 SCT180 26/08 A2947 RMK CU3AS1 SLP981 DENSITY ALT 2400FT

EXPIRED METARs :
  • 232000Z 24016G24KT 15SM SCT045 BKN180 25/10 A2950 RMK CU4AS2 SLP992 DENSITY ALT 2300FT
  • 231900Z 26013G23KT 230V290 15SM SCT045 BKN180 24/10 A2952 RMK CU3AS2 SLP999 DENSITY ALT 2100FT

TAF TAF CYGX
Valid from the 23 at 19:00 until the 24 at 07:00 UTC


231838Z 2319/2407 26018G28KT P6SM SCT040
FM240000 26012G22KT P6SM SCT060
TEMPO 2400/2406 BKN060
FM240600 26012G22KT P6SM SCT020 RMK NXT FCST BY 240100Z
CZWG FIR / North America



MET'MAP, your aeronautical weather chart ! - Copyright ORBIFLY December 2007 - Disclaimer

ORBIFLY MET'MAP TEAM :

Programming & Development : Alexandra Zaïnal
Concept & original design : Baudouin d'Aumeries
Assistance for programming : Marc-Olivier Méhu
Technical & hardware support : Manuel Goepfert

Contact : metmap@orbifly.com




SOURCES & CREDITS :

   NOAA       Earth
Advisory